Hovedside
METAR-TAF:

METAR-TAF

Lufthavner :

Kristianstad, Sverige

breddegrad: 55-55N, lengdegrad: 014-05E, høyde over havet: 23 m

Gjeldene værobservasjon

Denne rapporten ble laget for 33 minutter siden, klokken 09:50 UTC
Vind 12 kt fra Sørvest
Temperatur 17°C
Luftfuktighet 72%
Trykk 1001 hPa
Sikt 10 km eller mer

METAR: ESMK 250950Z AUTO 23012KT 9999 FEW034/// BKN053/// 17/12 Q1001

Tid: 12:23 (10:23 UTC)


TAF: fraværende

Værobservasjoner og værvarsel for over 4000 flyplasser (METAR- og TAF-rapporter).

Tilgjengelige stasjoner er representert av de røde og gule prikkene på kartet.

Hold musepekeren over prikken for å se navnet på stasjonen.

Klikk så for å se værobservasjoner og -varsler.

For å forandre kartet kan du klikke på den grønne knappen med svart kryss for å zoome inn, på den grønne knappen med strek for å zoome ut, eller på de grønne pilene for å se tilstøtende kart.


METAR-TAF: